Time;durP1;ratioP1;P1;durP2;ratioP2;P2;SDS_P1;SDS_P2;PMS_P1;PMS_P2;Temp;Humidity;BMP_temperature;BMP_pressure;BME280_temperature;BME280_humidity;BME280_pressure;Samples;Min_cycle;Max_cycle;Signal;HPM_P1;HPM_P2
2024/04/23 00:02:17;;;;;;;8.60;5.47;;;5.90;99.90;;;;;;5448838;26;20234;-77
2024/04/23 00:04:43;;;;;;;7.32;5.28;;;5.90;99.90;;;;;;5448263;26;20233;-77
2024/04/23 00:07:09;;;;;;;8.25;6.03;;;5.80;99.90;;;;;;5419101;26;20265;-77
2024/04/23 00:09:36;;;;;;;5.35;4.82;;;5.90;99.90;;;;;;5449028;26;20237;-75
2024/04/23 00:12:02;;;;;;;7.40;5.95;;;5.80;99.90;;;;;;5448368;26;20217;-76
2024/04/23 00:14:28;;;;;;;7.13;5.45;;;5.80;99.90;;;;;;5432584;26;20527;-75
2024/04/23 00:17:02;;;;;;;6.22;5.35;;;5.80;99.90;;;;;;5422750;26;20234;-75
2024/04/23 00:19:28;;;;;;;9.00;7.30;;;5.70;99.90;;;;;;5446498;26;20279;-76
2024/04/23 00:21:54;;;;;;;7.13;5.63;;;5.70;99.90;;;;;;5448902;26;20225;-76
2024/04/23 00:24:20;;;;;;;6.80;5.68;;;5.70;99.90;;;;;;5448358;26;20292;-76
2024/04/23 00:26:57;;;;;;;6.28;5.65;;;5.70;99.90;;;;;;5478737;26;20233;-76
2024/04/23 00:29:23;;;;;;;6.40;5.80;;;5.70;99.90;;;;;;5448568;26;20317;-76
2024/04/23 00:31:49;;;;;;;6.68;5.95;;;5.60;99.90;;;;;;5450982;26;20282;-76
2024/04/23 00:34:15;;;;;;;6.53;5.85;;;5.60;99.90;;;;;;5433577;26;20226;-76
2024/04/23 00:36:57;;;;;;;6.05;5.20;;;5.60;99.90;;;;;;5478918;26;20285;-76
2024/04/23 00:39:24;;;;;;;7.13;5.63;;;5.50;99.90;;;;;;5448657;26;20234;-76
2024/04/23 00:41:50;;;;;;;7.22;6.53;;;5.50;99.90;;;;;;5448730;26;20229;-76
2024/04/23 00:44:17;;;;;;;7.05;6.35;;;5.50;99.90;;;;;;5446562;26;20230;-76
2024/04/23 00:46:43;;;;;;;7.63;6.32;;;5.50;99.90;;;;;;5438750;26;20708;-77
2024/04/23 00:49:12;;;;;;;7.15;6.45;;;5.40;99.90;;;;;;5450288;26;20568;-77
2024/04/23 00:51:41;;;;;;;7.45;6.20;;;5.40;99.90;;;;;;5458936;26;20284;-77
2024/04/23 00:54:09;;;;;;;5.82;5.13;;;5.40;99.90;;;;;;5448196;26;20225;-76
2024/04/23 00:56:36;;;;;;;6.13;5.53;;;5.40;99.90;;;;;;5449739;26;20233;-77
2024/04/23 00:59:02;;;;;;;7.13;6.40;;;5.40;99.90;;;;;;5442303;26;20289;-76
2024/04/23 01:01:29;;;;;;;6.93;5.53;;;5.40;99.90;;;;;;5447871;26;20281;-77
2024/04/23 01:03:55;;;;;;;6.78;5.18;;;5.30;99.90;;;;;;5448224;26;20237;-76
2024/04/23 01:06:21;;;;;;;7.05;5.80;;;5.40;99.90;;;;;;5447370;26;20283;-76
2024/04/23 01:08:47;;;;;;;7.13;6.38;;;5.30;99.90;;;;;;5448893;26;20277;-76
2024/04/23 01:11:13;;;;;;;9.57;6.45;;;5.30;99.90;;;;;;5436115;26;20264;-76
2024/04/23 01:13:40;;;;;;;6.63;5.80;;;5.40;99.90;;;;;;5448735;26;20591;-76
2024/04/23 01:16:07;;;;;;;6.30;5.50;;;5.40;99.90;;;;;;5447985;26;20270;-76
2024/04/23 01:18:34;;;;;;;8.05;5.22;;;5.40;99.90;;;;;;5449742;26;20289;-76
2024/04/23 01:21:03;;;;;;;8.43;5.95;;;5.40;99.90;;;;;;5450012;26;20225;-76
2024/04/23 01:23:53;;;;;;;6.40;5.20;;;5.40;99.90;;;;;;5448069;26;20281;-77
2024/04/23 01:26:20;;;;;;;6.57;5.40;;;5.40;99.90;;;;;;5445058;26;20308;-76
2024/04/23 01:28:47;;;;;;;7.55;5.45;;;5.40;99.90;;;;;;5448554;26;20269;-76
2024/04/23 01:31:15;;;;;;;7.18;6.00;;;5.50;99.90;;;;;;5448800;26;20302;-76
2024/04/23 01:33:43;;;;;;;7.63;6.38;;;5.50;99.90;;;;;;5438367;26;20270;-76
2024/04/23 01:36:10;;;;;;;6.40;5.80;;;5.50;99.90;;;;;;5449282;26;20597;-77
2024/04/23 01:38:37;;;;;;;9.10;5.45;;;5.50;99.90;;;;;;5455586;26;20225;-77
2024/04/23 01:41:05;;;;;;;9.23;6.20;;;5.50;99.90;;;;;;5448360;26;20283;-76
2024/04/23 01:43:31;;;;;;;7.07;6.38;;;5.50;99.90;;;;;;5429237;26;20281;-76
2024/04/23 01:45:58;;;;;;;8.25;6.57;;;5.50;99.90;;;;;;5446574;26;20341;-76
2024/04/23 01:48:25;;;;;;;8.18;7.22;;;5.50;99.90;;;;;;5444690;26;20635;-76
2024/04/23 01:50:51;;;;;;;8.00;6.35;;;5.40;99.90;;;;;;5437777;26;20280;-76
2024/04/23 01:53:17;;;;;;;8.48;7.22;;;5.50;99.90;;;;;;5442251;26;20266;-76
2024/04/23 01:55:44;;;;;;;7.70;6.88;;;5.50;99.90;;;;;;5446984;26;20305;-76
2024/04/23 01:58:10;;;;;;;8.40;6.30;;;5.50;99.90;;;;;;5449252;26;20225;-76
2024/04/23 02:00:37;;;;;;;8.80;7.90;;;5.50;99.90;;;;;;5449040;26;20269;-76
2024/04/23 02:03:05;;;;;;;8.68;7.10;;;5.50;99.90;;;;;;5449113;26;20623;-77
2024/04/23 02:05:31;;;;;;;8.45;6.88;;;5.50;99.90;;;;;;5447870;26;20729;-76
2024/04/23 02:07:58;;;;;;;7.93;7.13;;;5.50;99.90;;;;;;5448808;26;20230;-76
2024/04/23 02:10:25;;;;;;;8.10;7.28;;;5.50;99.90;;;;;;5417515;26;20281;-76
2024/04/23 02:12:51;;;;;;;7.38;6.53;;;5.50;99.90;;;;;;5439728;26;20323;-76
2024/04/23 02:15:18;;;;;;;8.73;7.32;;;5.60;99.90;;;;;;5392220;26;20573;-76
2024/04/23 02:17:44;;;;;;;9.25;7.72;;;5.60;99.90;;;;;;5430812;26;20233;-76
2024/04/23 02:20:11;;;;;;;8.63;6.85;;;5.60;99.90;;;;;;5447099;26;20266;-76
2024/04/23 02:22:38;;;;;;;7.78;6.97;;;5.60;99.90;;;;;;5448492;26;20225;-76
2024/04/23 02:25:05;;;;;;;8.30;7.05;;;5.50;99.90;;;;;;5440418;26;20710;-76
2024/04/23 02:27:31;;;;;;;9.35;7.70;;;5.50;99.90;;;;;;5445965;26;20230;-76
2024/04/23 02:30:00;;;;;;;8.75;7.80;;;5.50;99.90;;;;;;5441101;26;20227;-76
2024/04/23 02:32:27;;;;;;;8.85;7.47;;;5.40;99.90;;;;;;5443236;26;20588;-76
2024/04/23 02:34:54;;;;;;;8.32;6.85;;;5.40;99.90;;;;;;5447889;26;20226;-76
2024/04/23 02:37:20;;;;;;;9.13;8.23;;;5.40;99.90;;;;;;5448263;26;20708;-76
2024/04/23 02:39:46;;;;;;;8.95;7.68;;;5.30;99.90;;;;;;5448908;26;20222;-76
2024/04/23 02:42:12;;;;;;;9.88;8.48;;;5.30;99.90;;;;;;5477125;26;20277;-76
2024/04/23 02:44:38;;;;;;;10.23;7.95;;;5.20;99.90;;;;;;5447538;26;20225;-76
2024/04/23 02:47:05;;;;;;;8.13;7.32;;;5.20;99.90;;;;;;5468869;26;20288;-78
2024/04/23 02:49:31;;;;;;;9.05;7.75;;;5.20;99.90;;;;;;5422974;26;20233;-76
2024/04/23 02:51:58;;;;;;;8.75;7.30;;;5.10;99.90;;;;;;5452060;26;20601;-76
2024/04/23 02:54:24;;;;;;;8.65;7.45;;;5.10;99.90;;;;;;5451936;26;20260;-76
2024/04/23 02:56:51;;;;;;;9.32;7.35;;;5.10;99.90;;;;;;5449574;26;20229;-76
2024/04/23 02:59:23;;;;;;;11.13;7.80;;;5.00;99.90;;;;;;5452072;26;20273;-76
2024/04/23 03:01:59;;;;;;;8.48;7.47;;;4.90;99.90;;;;;;5480700;26;20230;-76
2024/04/23 03:04:25;;;;;;;9.43;8.25;;;5.00;99.90;;;;;;5481098;26;20237;-76
2024/04/23 03:06:51;;;;;;;8.05;7.22;;;4.90;99.90;;;;;;5464523;26;20230;-76
2024/04/23 03:09:17;;;;;;;8.93;7.18;;;4.90;99.90;;;;;;5451866;26;20222;-76
2024/04/23 03:11:51;;;;;;;9.80;8.23;;;4.90;99.90;;;;;;5437128;26;20640;-75
2024/04/23 03:14:17;;;;;;;10.35;8.20;;;4.80;99.90;;;;;;5451454;26;20302;-76
2024/04/23 03:16:43;;;;;;;9.73;6.90;;;4.80;99.90;;;;;;5448807;26;20621;-76
2024/04/23 03:19:09;;;;;;;9.07;7.60;;;4.80;99.90;;;;;;5451646;26;20270;-76
2024/04/23 03:21:46;;;;;;;10.60;7.72;;;4.70;99.90;;;;;;5450183;26;20567;-76
2024/04/23 03:24:12;;;;;;;8.48;6.93;;;4.70;99.90;;;;;;5451540;26;20222;-76
2024/04/23 03:26:38;;;;;;;8.45;7.50;;;4.70;99.90;;;;;;5450753;26;20294;-76
2024/04/23 03:29:04;;;;;;;8.40;7.03;;;4.70;99.90;;;;;;5451498;26;20230;-76
2024/04/23 03:31:30;;;;;;;9.38;7.07;;;4.60;99.90;;;;;;5480221;26;20269;-76
2024/04/23 03:33:56;;;;;;;11.68;8.73;;;4.60;99.90;;;;;;5480207;26;20759;-76
2024/04/23 03:36:23;;;;;;;9.98;8.38;;;4.60;99.90;;;;;;5419167;26;20309;-76
2024/04/23 03:38:49;;;;;;;10.98;7.95;;;4.60;99.90;;;;;;5452158;26;20301;-76
2024/04/23 03:41:15;;;;;;;9.40;8.40;;;4.60;99.90;;;;;;5444465;26;20231;-77
2024/04/23 03:43:41;;;;;;;11.50;9.60;;;4.60;99.90;;;;;;5444573;26;20287;-76
2024/04/23 03:46:07;;;;;;;9.45;8.20;;;4.50;99.90;;;;;;5447771;26;20234;-76
2024/04/23 03:48:33;;;;;;;10.00;8.52;;;4.50;99.90;;;;;;5450827;26;20299;-76
2024/04/23 03:50:59;;;;;;;11.32;8.52;;;4.60;99.90;;;;;;5451245;26;20306;-76
2024/04/23 03:53:25;;;;;;;9.57;8.57;;;4.60;99.90;;;;;;5450314;26;20571;-76
2024/04/23 03:55:51;;;;;;;11.40;9.05;;;4.60;99.90;;;;;;5450242;26;20230;-76
2024/04/23 03:58:18;;;;;;;10.77;9.68;;;4.50;99.90;;;;;;5479486;26;20755;-77
2024/04/23 04:00:44;;;;;;;12.93;11.57;;;4.50;99.90;;;;;;5443508;26;20223;-76
2024/04/23 04:06:04;;;;;;;12.45;10.70;;;4.50;99.90;;;;;;5450400;26;20264;-76
2024/04/23 04:08:40;;;;;;;11.75;10.50;;;4.50;99.90;;;;;;5414661;26;20574;-77
2024/04/23 04:11:07;;;;;;;13.32;11.40;;;4.50;99.90;;;;;;5451069;26;20341;-76
2024/04/23 04:13:33;;;;;;;16.65;12.63;;;4.50;99.90;;;;;;5444444;26;20762;-76
2024/04/23 04:16:00;;;;;;;14.70;12.68;;;4.50;99.90;;;;;;5422718;26;20792;-76
2024/04/23 04:18:27;;;;;;;15.23;13.43;;;4.50;99.90;;;;;;5433839;26;20567;-75
2024/04/23 04:20:54;;;;;;;15.05;12.35;;;4.50;99.90;;;;;;5449066;26;20278;-76
2024/04/23 04:23:20;;;;;;;14.65;11.82;;;4.50;99.90;;;;;;5448826;26;20242;-75
2024/04/23 04:25:46;;;;;;;17.30;12.60;;;4.50;99.90;;;;;;5447964;26;20225;-75
2024/04/23 04:28:12;;;;;;;15.90;12.80;;;4.50;99.90;;;;;;5418733;26;20273;-75
2024/04/23 04:30:39;;;;;;;15.13;13.50;;;4.50;99.90;;;;;;5448742;26;20574;-76
2024/04/23 04:33:05;;;;;;;17.75;13.73;;;4.50;99.90;;;;;;5442935;26;20226;-76
2024/04/23 04:35:31;;;;;;;14.52;12.18;;;4.60;99.90;;;;;;5413563;26;20276;-76
2024/04/23 04:37:57;;;;;;;15.70;13.80;;;4.60;99.90;;;;;;5478760;26;20715;-76
2024/04/23 04:40:23;;;;;;;15.85;14.02;;;4.60;99.90;;;;;;5419042;26;20225;-76
2024/04/23 04:42:50;;;;;;;15.95;13.55;;;4.60;99.90;;;;;;5473631;26;20265;-75
2024/04/23 04:45:17;;;;;;;14.88;12.85;;;4.70;99.90;;;;;;5458843;26;20238;-76
2024/04/23 04:47:47;;;;;;;17.73;13.88;;;4.70;99.90;;;;;;5434730;26;21024;-76
2024/04/23 04:50:13;;;;;;;16.98;13.18;;;4.70;99.90;;;;;;5416891;26;20238;-76
2024/04/23 04:52:39;;;;;;;16.42;13.80;;;4.70;99.90;;;;;;5384220;26;20271;-76
2024/04/23 04:55:06;;;;;;;14.68;12.90;;;4.80;99.90;;;;;;5454714;26;20570;-76
2024/04/23 04:57:32;;;;;;;14.63;12.48;;;4.80;99.90;;;;;;5422069;26;20290;-76
2024/04/23 04:59:59;;;;;;;17.77;14.10;;;4.80;99.90;;;;;;5431077;26;20268;-76
2024/04/23 05:02:25;;;;;;;15.75;12.90;;;4.80;99.90;;;;;;5434783;26;20222;-76
2024/04/23 05:04:53;;;;;;;16.63;12.70;;;4.90;99.90;;;;;;5433069;26;20276;-76
2024/04/23 05:07:19;;;;;;;16.17;13.32;;;4.90;99.90;;;;;;5435365;26;20265;-77
2024/04/23 05:09:46;;;;;;;15.93;14.32;;;4.90;99.90;;;;;;5416431;26;20749;-76
2024/04/23 05:12:16;;;;;;;16.75;13.70;;;4.90;99.90;;;;;;5448036;26;20263;-76
2024/04/23 05:14:42;;;;;;;16.70;14.55;;;5.00;99.90;;;;;;5417297;26;20599;-76
2024/04/23 05:17:08;;;;;;;15.57;13.93;;;5.00;99.90;;;;;;5478398;26;20260;-76
2024/04/23 05:19:34;;;;;;;16.20;14.13;;;5.00;99.90;;;;;;5447463;26;20269;-76
2024/04/23 05:22:00;;;;;;;15.73;13.60;;;5.10;99.90;;;;;;5449753;26;20763;-76
2024/04/23 05:24:27;;;;;;;19.25;14.23;;;5.10;99.90;;;;;;5449219;26;20238;-76
2024/04/23 05:26:53;;;;;;;16.67;14.88;;;5.10;99.90;;;;;;5449153;26;20280;-76
2024/04/23 05:29:19;;;;;;;17.40;14.65;;;5.20;99.90;;;;;;5428376;26;20234;-76
2024/04/23 05:34:30;;;;;;;19.42;15.70;;;5.30;99.90;;;;;;5472490;26;20264;-76
2024/04/23 05:36:56;;;;;;;18.30;15.00;;;5.40;99.90;;;;;;5477493;26;20268;-76
2024/04/23 05:39:22;;;;;;;17.88;14.30;;;5.40;99.90;;;;;;5447926;26;20264;-76
2024/04/23 05:41:49;;;;;;;17.77;14.02;;;5.50;99.90;;;;;;5478215;26;20237;-76
2024/04/23 05:44:15;;;;;;;16.25;14.02;;;5.50;99.90;;;;;;5477673;26;20305;-76
2024/04/23 05:46:41;;;;;;;14.00;12.60;;;5.60;99.90;;;;;;5436719;26;20633;-76
2024/04/23 05:49:45;;;;;;;14.10;12.70;;;5.60;99.90;;;;;;5448065;26;20234;-76
2024/04/23 05:53:08;;;;;;;14.18;12.15;;;5.70;99.90;;;;;;5432640;26;20273;-76
2024/04/23 05:55:53;;;;;;;12.57;11.23;;;5.80;99.90;;;;;;5448632;26;20624;-76
2024/04/23 05:58:19;;;;;;;13.85;12.30;;;5.90;99.90;;;;;;5448058;26;20285;-76
2024/04/23 06:00:45;;;;;;;14.05;10.65;;;6.00;99.90;;;;;;5447330;26;20230;-76
2024/04/23 06:03:11;;;;;;;11.63;10.43;;;6.10;99.90;;;;;;5448896;26;20305;-77
2024/04/23 06:05:37;;;;;;;12.15;10.68;;;6.10;99.90;;;;;;5446725;26;20569;-77
2024/04/23 06:08:04;;;;;;;11.68;10.25;;;6.20;99.90;;;;;;5451195;26;20229;-78
2024/04/23 06:10:31;;;;;;;14.10;10.18;;;6.30;99.90;;;;;;5440395;26;20268;-77
2024/04/23 06:12:57;;;;;;;11.20;9.48;;;6.30;99.90;;;;;;5456863;26;20297;-77
2024/04/23 06:15:24;;;;;;;10.75;9.15;;;6.40;99.90;;;;;;5436269;26;21007;-77
2024/04/23 06:17:51;;;;;;;11.77;9.73;;;6.40;99.90;;;;;;5444474;26;20227;-76
2024/04/23 06:20:17;;;;;;;11.23;9.73;;;6.50;99.90;;;;;;5405494;26;20263;-76
2024/04/23 06:22:48;;;;;;;11.00;9.80;;;6.60;99.90;;;;;;5447858;26;20226;-76
2024/04/23 06:25:16;;;;;;;12.05;10.18;;;6.80;99.90;;;;;;5451682;26;20601;-76
2024/04/23 06:27:42;;;;;;;10.82;9.70;;;7.20;99.90;;;;;;5450394;26;20259;-76
2024/04/23 06:30:14;;;;;;;9.20;8.25;;;8.10;99.90;;;;;;5444356;26;20957;-76
2024/04/23 06:32:41;;;;;;;10.13;9.13;;;9.20;99.90;;;;;;5384720;26;20810;-76
2024/04/23 06:35:13;;;;;;;9.93;8.98;;;10.50;99.90;;;;;;5433892;26;20311;-77
2024/04/23 06:37:39;;;;;;;10.00;8.70;;;11.80;99.90;;;;;;5452226;26;20230;-77
2024/04/23 06:40:08;;;;;;;9.10;8.20;;;13.20;99.90;;;;;;5449866;26;20591;-77
2024/04/23 06:42:37;;;;;;;9.40;8.60;;;14.50;99.90;;;;;;5465175;26;20546;-77
2024/04/23 06:45:03;;;;;;;8.90;7.27;;;15.70;99.90;;;;;;5414815;26;20571;-78
2024/04/23 06:47:30;;;;;;;7.73;6.97;;;17.00;99.90;;;;;;5452213;26;20576;-78
2024/04/23 06:49:56;;;;;;;8.33;7.37;;;18.10;99.90;;;;;;5449866;26;20579;-78
2024/04/23 06:52:22;;;;;;;8.37;6.83;;;19.10;99.90;;;;;;5451581;26;21159;-78
2024/04/23 06:54:48;;;;;;;4.67;4.20;;;20.10;99.90;;;;;;5450982;26;20575;-78
2024/04/23 06:57:14;;;;;;;4.43;3.20;;;20.90;99.90;;;;;;5450566;26;20633;-78
2024/04/23 06:59:42;;;;;;;3.47;2.93;;;21.60;99.90;;;;;;5454058;26;20583;-77
2024/04/23 07:02:10;;;;;;;2.77;2.10;;;22.00;99.90;;;;;;5459813;26;20531;-78
2024/04/23 07:04:36;;;;;;;3.67;2.20;;;22.40;99.90;;;;;;5479860;26;20730;-77
2024/04/23 07:07:02;;;;;;;2.77;1.93;;;22.90;99.90;;;;;;5453564;26;20587;-77
2024/04/23 07:09:29;;;;;;;2.83;1.53;;;23.30;99.90;;;;;;5446627;26;20583;-78
2024/04/23 07:11:55;;;;;;;2.73;1.67;;;23.50;95.50;;;;;;5428542;26;20525;-78
2024/04/23 07:14:21;;;;;;;2.00;1.40;;;23.60;94.70;;;;;;5475055;26;20882;-77
2024/04/23 07:16:48;;;;;;;3.13;1.67;;;23.50;92.20;;;;;;5447624;26;20578;-77
2024/04/23 07:19:14;;;;;;;2.90;1.60;;;23.40;90.40;;;;;;5460907;26;20667;-76
2024/04/23 07:21:40;;;;;;;3.40;2.20;;;23.60;90.50;;;;;;5433671;26;20988;-76
2024/04/23 07:24:06;;;;;;;2.80;1.90;;;23.90;85.60;;;;;;5435730;26;20619;-76
2024/04/23 07:26:32;;;;;;;2.10;1.50;;;24.00;82.20;;;;;;5446925;26;20647;-77
2024/04/23 07:28:59;;;;;;;3.03;1.90;;;24.00;78.90;;;;;;5444053;26;20612;-77
2024/04/23 07:31:25;;;;;;;4.03;2.63;;;24.00;75.90;;;;;;5436361;26;20537;-77
2024/04/23 07:33:51;;;;;;;3.03;2.40;;;24.00;75.80;;;;;;5432857;26;21129;-77
2024/04/23 07:36:17;;;;;;;2.30;2.00;;;24.00;73.70;;;;;;5451031;26;21202;-77
2024/04/23 07:38:43;;;;;;;3.60;2.20;;;24.20;73.80;;;;;;5463298;26;20532;-77
2024/04/23 07:41:09;;;;;;;2.30;1.50;;;24.30;73.00;;;;;;5462818;26;21137;-77
2024/04/23 07:43:35;;;;;;;2.77;1.77;;;24.60;73.50;;;;;;5449315;26;20595;-78
2024/04/23 07:46:01;;;;;;;3.60;1.83;;;25.10;73.70;;;;;;5451301;26;20619;-78
2024/04/23 07:48:27;;;;;;;2.50;1.77;;;25.60;73.30;;;;;;5458478;26;20522;-77
2024/04/23 07:50:54;;;;;;;3.60;1.70;;;26.00;71.80;;;;;;5450351;26;21794;-77
2024/04/23 07:53:20;;;;;;;4.10;2.07;;;26.40;71.20;;;;;;5458061;26;20526;-78
2024/04/23 07:55:46;;;;;;;2.50;1.97;;;26.90;70.00;;;;;;5450807;26;20567;-78
2024/04/23 07:58:12;;;;;;;3.03;2.57;;;27.20;68.40;;;;;;5481451;26;20600;-78
2024/04/23 08:00:38;;;;;;;2.57;1.37;;;27.60;67.40;;;;;;5452068;26;20549;-78
2024/04/23 08:03:07;;;;;;;3.07;2.67;;;27.90;66.00;;;;;;5435845;26;21161;-78
2024/04/23 08:05:33;;;;;;;2.27;1.43;;;28.20;63.00;;;;;;5455849;26;20616;-78
2024/04/23 08:07:59;;;;;;;2.40;1.40;;;28.40;62.20;;;;;;5450572;26;20591;-78
2024/04/23 08:10:25;;;;;;;4.33;1.70;;;28.60;60.30;;;;;;5450892;26;21434;-78
2024/04/23 08:12:53;;;;;;;2.10;1.30;;;28.80;59.70;;;;;;5443513;26;20632;-78
2024/04/23 08:15:19;;;;;;;2.83;1.30;;;29.10;58.80;;;;;;5438320;26;20575;-78
2024/04/23 08:17:45;;;;;;;2.17;1.40;;;29.40;57.90;;;;;;5421887;26;20568;-78
2024/04/23 08:20:11;;;;;;;2.17;1.40;;;29.60;57.10;;;;;;5438751;26;20599;-78
2024/04/23 08:22:38;;;;;;;2.40;1.30;;;29.80;56.30;;;;;;5450216;26;20540;-78
2024/04/23 08:25:04;;;;;;;2.87;1.40;;;30.00;55.80;;;;;;5442116;26;20649;-78
2024/04/23 08:27:30;;;;;;;2.20;1.67;;;30.30;55.20;;;;;;5446587;26;20643;-78
2024/04/23 08:29:57;;;;;;;2.40;1.27;;;30.50;54.10;;;;;;5474581;26;20617;-78
2024/04/23 08:32:24;;;;;;;2.80;1.20;;;30.70;53.60;;;;;;5445583;26;20581;-77
2024/04/23 08:34:50;;;;;;;2.97;1.73;;;30.90;52.80;;;;;;5450101;26;20626;-77
2024/04/23 08:37:16;;;;;;;2.60;1.80;;;30.90;51.10;;;;;;5450852;26;20578;-77
2024/04/23 08:39:42;;;;;;;2.00;1.27;;;30.70;50.00;;;;;;5451950;26;20530;-77
2024/04/23 08:42:12;;;;;;;2.43;1.80;;;30.70;49.80;;;;;;5443508;26;20598;-78
2024/04/23 08:44:41;;;;;;;2.57;1.50;;;30.70;48.40;;;;;;5447161;26;20548;-77
2024/04/23 08:47:11;;;;;;;2.20;1.43;;;30.80;47.60;;;;;;5487970;26;20897;-76
2024/04/23 08:49:38;;;;;;;2.80;1.40;;;30.90;47.10;;;;;;5459035;26;20522;-78
2024/04/23 08:52:07;;;;;;;2.27;1.30;;;30.90;47.10;;;;;;5442466;26;20626;-78
2024/04/23 08:54:33;;;;;;;2.07;1.10;;;31.10;46.60;;;;;;5446580;26;20620;-80
2024/04/23 08:57:00;;;;;;;1.90;1.07;;;31.10;45.00;;;;;;5450981;26;20534;-79
2024/04/23 08:59:30;;;;;;;2.00;1.30;;;31.10;45.10;;;;;;5463358;26;20934;-78
2024/04/23 09:02:02;;;;;;;2.30;1.60;;;31.10;44.30;;;;;;5451609;26;20619;-78
2024/04/23 09:04:30;;;;;;;3.50;1.30;;;31.10;42.30;;;;;;5450010;26;20881;-78
2024/04/23 09:06:57;;;;;;;3.23;1.20;;;31.10;43.00;;;;;;5448268;26;20528;-77
2024/04/23 09:09:25;;;;;;;2.20;1.30;;;31.00;43.10;;;;;;5451185;26;20586;-78
2024/04/23 09:11:52;;;;;;;2.30;1.20;;;31.10;42.90;;;;;;5444463;26;20555;-78
2024/04/23 09:14:18;;;;;;;1.93;1.20;;;31.20;42.60;;;;;;5453651;26;21273;-78
2024/04/23 09:16:45;;;;;;;2.00;1.40;;;31.30;42.20;;;;;;5453647;26;20580;-78
2024/04/23 09:19:11;;;;;;;3.20;1.67;;;31.40;42.20;;;;;;5440522;26;20554;-78
2024/04/23 09:21:37;;;;;;;2.97;1.10;;;31.40;41.50;;;;;;5435587;26;20544;-78
2024/04/23 09:24:04;;;;;;;2.20;1.13;;;31.30;41.40;;;;;;5441080;26;20535;-78
2024/04/23 09:26:31;;;;;;;3.27;1.30;;;31.00;40.70;;;;;;5449305;26;20932;-78
2024/04/23 09:28:58;;;;;;;1.87;1.10;;;30.80;40.10;;;;;;5449772;26;20561;-78
2024/04/23 09:31:24;;;;;;;3.30;1.10;;;30.70;39.30;;;;;;5438550;26;20529;-78
2024/04/23 09:33:59;;;;;;;2.07;0.90;;;30.50;39.10;;;;;;5457699;26;20617;-78
2024/04/23 09:36:27;;;;;;;2.13;0.90;;;30.30;38.70;;;;;;5457677;26;20583;-78
2024/04/23 09:39:02;;;;;;;1.80;1.20;;;30.30;38.90;;;;;;5461815;26;20557;-79
2024/04/23 09:41:30;;;;;;;2.37;0.90;;;30.30;38.60;;;;;;5449681;26;20528;-78
2024/04/23 09:43:58;;;;;;;1.57;0.83;;;30.40;38.50;;;;;;5448898;26;20607;-78
2024/04/23 09:46:28;;;;;;;1.80;1.00;;;30.10;37.90;;;;;;5442079;26;20583;-78
2024/04/23 09:48:56;;;;;;;1.90;1.07;;;29.70;36.90;;;;;;5444858;26;20278;-78
2024/04/23 09:51:22;;;;;;;2.23;1.00;;;28.90;35.90;;;;;;5445248;26;20572;-78
2024/04/23 09:53:48;;;;;;;2.60;1.10;;;27.90;35.10;;;;;;5450845;26;20529;-78
2024/04/23 09:56:19;;;;;;;2.83;1.20;;;26.90;35.00;;;;;;5456765;26;20666;-78
2024/04/23 09:58:47;;;;;;;2.43;1.23;;;26.50;36.20;;;;;;5457545;26;20894;-78
2024/04/23 10:01:26;;;;;;;1.67;0.90;;;26.50;36.50;;;;;;5456844;26;20536;-78
2024/04/23 10:03:55;;;;;;;1.80;1.00;;;26.60;37.50;;;;;;5454810;26;20614;-79
2024/04/23 10:06:23;;;;;;;2.77;1.40;;;26.90;38.60;;;;;;5452044;26;20903;-79
2024/04/23 10:09:20;;;;;;;2.40;1.17;;;27.10;37.00;;;;;;5452481;26;20621;-79
2024/04/23 10:12:02;;;;;;;2.10;1.20;;;27.40;37.00;;;;;;5447879;26;20531;-79
2024/04/23 10:14:53;;;;;;;1.77;1.00;;;27.80;37.10;;;;;;5452413;26;20551;-79
2024/04/23 10:17:32;;;;;;;2.30;1.40;;;28.10;36.60;;;;;;5430705;26;20564;-79
2024/04/23 10:20:01;;;;;;;3.20;1.20;;;28.50;34.90;;;;;;5451017;26;21098;-79
2024/04/23 10:22:29;;;;;;;1.80;1.03;;;28.80;37.60;;;;;;5444815;26;20522;-79
2024/04/23 10:24:56;;;;;;;2.20;0.93;;;29.10;37.20;;;;;;5454474;26;20567;-79
2024/04/23 10:27:25;;;;;;;2.23;1.17;;;29.20;36.90;;;;;;5458915;26;20530;-80
2024/04/23 10:29:53;;;;;;;1.73;1.00;;;29.60;36.90;;;;;;5456133;26;20579;-79
2024/04/23 10:32:22;;;;;;;3.00;1.10;;;29.90;36.90;;;;;;5460368;26;20619;-79
2024/04/23 10:34:49;;;;;;;1.80;1.03;;;30.20;36.50;;;;;;5452896;26;20671;-79
2024/04/23 10:37:16;;;;;;;2.00;1.00;;;30.30;36.70;;;;;;5448961;26;21067;-79
2024/04/23 10:39:43;;;;;;;3.90;1.30;;;30.50;36.80;;;;;;5465789;26;20547;-79
2024/04/23 10:42:13;;;;;;;1.93;1.40;;;30.50;35.50;;;;;;5419573;26;20598;-79
2024/04/23 10:44:40;;;;;;;1.83;1.30;;;30.00;34.50;;;;;;5444666;26;20694;-78
2024/04/23 10:47:06;;;;;;;4.00;1.30;;;29.20;33.60;;;;;;5452491;26;20580;-78
2024/04/23 10:49:37;;;;;;;2.83;1.40;;;28.30;32.80;;;;;;5461998;26;20595;-78
2024/04/23 10:52:04;;;;;;;6.73;1.70;;;27.30;32.50;;;;;;5451322;26;20547;-77
2024/04/23 10:54:32;;;;;;;2.33;1.30;;;26.20;32.10;;;;;;5451354;26;21133;-77
2024/04/23 10:57:09;;;;;;;2.10;1.30;;;25.10;32.40;;;;;;5436650;26;20523;-76
2024/04/23 10:59:39;;;;;;;2.23;1.40;;;24.10;32.00;;;;;;5451867;26;20529;-77
2024/04/23 11:02:10;;;;;;;2.00;1.30;;;23.10;31.90;;;;;;5442279;26;20525;-77
2024/04/23 11:04:45;;;;;;;2.43;1.00;;;22.30;32.70;;;;;;5445027;26;20647;-77
2024/04/23 11:07:13;;;;;;;2.10;1.40;;;22.00;33.80;;;;;;5462604;26;20598;-77
2024/04/23 11:09:43;;;;;;;2.33;1.53;;;21.90;34.60;;;;;;5444771;26;20605;-77
2024/04/23 11:12:25;;;;;;;2.27;1.57;;;21.90;34.90;;;;;;5436372;26;20602;-78
2024/04/23 11:14:52;;;;;;;2.87;1.10;;;22.10;35.60;;;;;;5429468;26;20573;-77
2024/04/23 11:17:20;;;;;;;2.27;1.03;;;22.40;36.80;;;;;;5442537;26;20864;-78
2024/04/23 11:19:52;;;;;;;1.80;1.10;;;22.80;37.40;;;;;;5464112;26;20546;-78
2024/04/23 11:22:44;;;;;;;2.30;1.50;;;23.20;37.30;;;;;;5449305;26;20961;-78
2024/04/23 11:25:17;;;;;;;2.60;1.40;;;23.60;36.10;;;;;;5421309;26;20559;-77
2024/04/23 11:27:44;;;;;;;2.43;1.47;;;23.80;36.90;;;;;;5452048;26;20606;-77
2024/04/23 11:30:14;;;;;;;1.90;1.10;;;24.10;37.00;;;;;;5451383;26;20596;-75
2024/04/23 11:32:40;;;;;;;2.77;1.97;;;24.20;36.20;;;;;;5419627;26;20547;-75
2024/04/23 11:35:07;;;;;;;3.27;1.90;;;24.20;35.60;;;;;;5478345;26;20660;-76
2024/04/23 11:37:33;;;;;;;2.67;1.50;;;24.10;35.70;;;;;;5441610;26;20519;-75
2024/04/23 11:40:00;;;;;;;2.40;1.80;;;23.90;35.40;;;;;;5451000;26;20953;-75
2024/04/23 11:42:28;;;;;;;3.17;2.00;;;23.60;34.70;;;;;;5438493;26;20539;-76
2024/04/23 11:45:01;;;;;;;2.17;1.53;;;23.20;33.50;;;;;;5441278;26;20621;-75
2024/04/23 11:47:28;;;;;;;4.17;1.50;;;22.60;33.60;;;;;;5419107;26;21140;-76
2024/04/23 11:49:54;;;;;;;2.97;1.50;;;22.00;33.40;;;;;;5450746;26;20524;-75
2024/04/23 11:52:22;;;;;;;2.20;1.57;;;21.40;32.90;;;;;;5450824;26;20532;-75
2024/04/23 11:54:49;;;;;;;3.60;1.60;;;20.90;33.10;;;;;;5449673;26;20559;-74
2024/04/23 11:57:17;;;;;;;2.80;1.67;;;20.50;33.50;;;;;;5450997;26;20520;-74
2024/04/23 11:59:43;;;;;;;2.73;1.50;;;20.20;34.10;;;;;;5450635;26;20637;-75
2024/04/23 12:02:10;;;;;;;2.00;1.37;;;20.10;34.20;;;;;;5450756;26;20599;-75
2024/04/23 12:04:37;;;;;;;2.67;1.87;;;19.90;33.80;;;;;;5448496;26;20544;-75
2024/04/23 12:07:04;;;;;;;3.03;2.23;;;19.60;33.90;;;;;;5447966;26;20604;-75
2024/04/23 12:09:34;;;;;;;3.00;2.20;;;19.40;34.10;;;;;;5449058;26;20614;-74
2024/04/23 12:12:00;;;;;;;4.50;2.53;;;19.10;34.20;;;;;;5448755;26;20649;-75
2024/04/23 12:14:28;;;;;;;4.27;2.60;;;18.80;34.20;;;;;;5445952;26;20596;-75
2024/04/23 12:16:55;;;;;;;3.30;2.23;;;18.50;34.00;;;;;;5446631;26;20603;-76
2024/04/23 12:19:21;;;;;;;2.83;1.83;;;18.20;34.20;;;;;;5428981;26;20630;-76
2024/04/23 12:21:48;;;;;;;3.43;2.00;;;18.00;34.50;;;;;;5448975;26;20611;-76
2024/04/23 12:24:15;;;;;;;2.87;1.97;;;17.80;34.80;;;;;;5478873;26;20967;-75
2024/04/23 12:26:42;;;;;;;2.70;2.03;;;17.70;35.00;;;;;;5478299;26;21120;-76
2024/04/23 12:29:09;;;;;;;3.40;2.10;;;17.60;35.30;;;;;;5450501;26;21354;-77
2024/04/23 12:31:35;;;;;;;2.50;2.00;;;17.50;35.90;;;;;;5439322;26;20589;-76
2024/04/23 12:34:01;;;;;;;4.83;2.97;;;17.60;36.40;;;;;;5458769;26;20548;-76
2024/04/23 12:36:29;;;;;;;4.53;2.97;;;17.70;36.60;;;;;;5449316;26;20660;-76
2024/04/23 12:38:55;;;;;;;4.07;2.43;;;17.70;36.80;;;;;;5433548;26;21042;-76
2024/04/23 12:41:24;;;;;;;2.77;2.00;;;17.90;37.10;;;;;;5478920;26;20626;-75
2024/04/23 12:43:51;;;;;;;2.90;1.97;;;18.00;37.20;;;;;;5447862;26;20626;-76
2024/04/23 12:46:18;;;;;;;2.47;1.60;;;18.10;37.20;;;;;;5468656;26;20886;-76
2024/04/23 12:48:47;;;;;;;5.03;1.83;;;18.20;37.20;;;;;;5435239;26;20603;-76
2024/04/23 12:51:13;;;;;;;5.20;1.83;;;18.40;37.00;;;;;;5448305;26;20540;-76
2024/04/23 12:53:39;;;;;;;3.07;2.00;;;18.50;36.80;;;;;;5449950;26;20524;-76
2024/04/23 12:56:07;;;;;;;3.33;1.60;;;18.40;36.20;;;;;;5448582;26;20547;-76
2024/04/23 12:58:35;;;;;;;3.83;2.00;;;18.30;35.70;;;;;;5478664;26;20543;-76